Hanjin Chongqing — 3EPJ2 — position and weather

sailwx.info

Track history (hours):
 
Tides and Currents Weather Stations Pressure Air Temp Water Temp Dewpoint Dewpoint Depression Visibility Wind Speed Wind Dir Waves Ship Positions

Hanjin Chongqing

Last reported at 2016-Jun-20 07:18 UTC. Time now 2016-Jun-29 02:08 UTC.
Position N 30°41' E 122°52'.
Warning: this ship's position is 8 days out of date.

Length 304 m; draft 12 m.

Type: Cargo ship. MMSI: 353957976.

Date/timePositionNaut miles runAvg speedWind from/ knotsBaromVisibWave heightAir tempDewpointWater temp
2016-Jun-20 07:18N 30°41' E 122°52'1518.4
2016-Jun-20 06:30N 30°35' E 122°36'2814.6
2016-Jun-20 04:33N 30°37' E 122°03'0 0.1
2016-Jun-20 01:32N 30°38' E 122°03'20 1.7
2016-Jun-19 13:32N 30°33' E 122°26'8 7.5
2016-Jun-19 12:25N 30°30' E 122°35'7 7.8
2016-Jun-19 11:32N 30°29' E 122°43'7 7.1
2016-Jun-19 10:33N 30°24' E 122°49'8 7.9
2016-Jun-19 09:32N 30°16' E 122°49'30 7.4
2016-Jun-19 05:29N 29°48' E 122°34'1414.5
2016-Jun-19 04:32N 29°45' E 122°19'1010.0
2016-Jun-19 03:33N 29°50' E 122°09'9 1.7
2016-Jun-18 22:26N 29°46' E 122°00'0 0.0
2016-Jun-18 19:32N 29°46' E 122°00'0 0.0
2016-Jun-18 15:32N 29°46' E 122°00'7 7.5
2016-Jun-18 14:33N 29°49' E 122°08'10 9.5
2016-Jun-18 13:33N 29°46' E 122°18'8 7.8
2016-Jun-18 12:32N 29°45' E 122°27'1 0.1
2016-Jun-18 04:24N 29°45' E 122°27'0 0.1
2016-Jun-17 23:18N 29°46' E 122°27'0 0.0
2016-Jun-17 22:18N 29°46' E 122°27'0 0.0
2016-Jun-17 21:06N 29°46' E 122°27'0 0.1
2016-Jun-17 17:18N 29°45' E 122°27'0 0.1
2016-Jun-17 16:30N 29°45' E 122°27'0 0.0
2016-Jun-17 04:12N 29°45' E 122°27'0 0.0
2016-Jun-17 03:06N 29°45' E 122°27'0 0.1
2016-Jun-17 02:24N 29°45' E 122°27'0 0.0
2016-Jun-16 17:18N 29°45' E 122°27'4 0.7
2016-Jun-16 12:29N 29°47' E 122°31'1212.3
2016-Jun-16 11:29N 29°53' E 122°43'  
Track history (hours):
 
Tides and Currents Weather Stations Pressure Air Temp Water Temp Dewpoint Dewpoint Depression Visibility Wind Speed Wind Dir Waves Ship Positions

Hanjin Chongqing

Last reported at 2016-Jun-20 07:18 UTC. Time now 2016-Jun-29 02:08 UTC.
Position N 30°41' E 122°52'.
Warning: this ship's position is 8 days out of date.

Length 304 m; draft 12 m.

Type: Cargo ship. MMSI: 353957976.

Date/timePositionNaut miles runAvg speedWind from/ knotsBaromVisibWave heightAir tempDewpointWater temp
2016-Jun-20 07:18N 30°41' E 122°52'1518.4
2016-Jun-20 06:30N 30°35' E 122°36'2814.6
2016-Jun-20 04:33N 30°37' E 122°03'0 0.1
2016-Jun-20 01:32N 30°38' E 122°03'20 1.7
2016-Jun-19 13:32N 30°33' E 122°26'8 7.5
2016-Jun-19 12:25N 30°30' E 122°35'7 7.8
2016-Jun-19 11:32N 30°29' E 122°43'7 7.1
2016-Jun-19 10:33N 30°24' E 122°49'8 7.9
2016-Jun-19 09:32N 30°16' E 122°49'30 7.4
2016-Jun-19 05:29N 29°48' E 122°34'1414.5
2016-Jun-19 04:32N 29°45' E 122°19'1010.0
2016-Jun-19 03:33N 29°50' E 122°09'9 1.7
2016-Jun-18 22:26N 29°46' E 122°00'0 0.0
2016-Jun-18 19:32N 29°46' E 122°00'0 0.0
2016-Jun-18 15:32N 29°46' E 122°00'7 7.5
2016-Jun-18 14:33N 29°49' E 122°08'10 9.5
2016-Jun-18 13:33N 29°46' E 122°18'8 7.8
2016-Jun-18 12:32N 29°45' E 122°27'1 0.1
2016-Jun-18 04:24N 29°45' E 122°27'0 0.1
2016-Jun-17 23:18N 29°46' E 122°27'0 0.0
2016-Jun-17 22:18N 29°46' E 122°27'0 0.0
2016-Jun-17 21:06N 29°46' E 122°27'0 0.1
2016-Jun-17 17:18N 29°45' E 122°27'0 0.1
2016-Jun-17 16:30N 29°45' E 122°27'0 0.0
2016-Jun-17 04:12N 29°45' E 122°27'0 0.0
2016-Jun-17 03:06N 29°45' E 122°27'0 0.1
2016-Jun-17 02:24N 29°45' E 122°27'0 0.0
2016-Jun-16 17:18N 29°45' E 122°27'4 0.7
2016-Jun-16 12:29N 29°47' E 122°31'1212.3
2016-Jun-16 11:29N 29°53' E 122°43'  

Dump ship's entire track history